Time;durP1;ratioP1;P1;durP2;ratioP2;P2;SDS_P1;SDS_P2;PMS_P1;PMS_P2;Temp;Humidity;BMP_temperature;BMP_pressure;BME280_temperature;BME280_humidity;BME280_pressure;Samples;Min_cycle;Max_cycle;Signal;HPM_P1;HPM_P2
2022/07/09 00:00:43;;;;;;;3.30;2.80;;;18.80;99.90;;;;;;5033625;28;20646;-69
2022/07/09 00:03:10;;;;;;;4.67;3.10;;;18.80;99.90;;;;;;5034056;28;20301;-68
2022/07/09 00:05:36;;;;;;;3.10;2.80;;;18.80;99.90;;;;;;5034394;28;20299;-68
2022/07/09 00:08:04;;;;;;;3.37;3.07;;;18.80;99.90;;;;;;5033125;28;20270;-69
2022/07/09 00:10:31;;;;;;;4.57;3.10;;;18.80;99.90;;;;;;5045420;28;20246;-70
2022/07/09 00:12:58;;;;;;;4.97;3.20;;;18.80;99.90;;;;;;5053291;28;20208;-69
2022/07/09 00:15:25;;;;;;;4.83;3.20;;;18.80;99.90;;;;;;5053417;28;20292;-70
2022/07/09 00:17:53;;;;;;;3.67;3.10;;;18.80;99.90;;;;;;5053402;28;20564;-70
2022/07/09 00:20:20;;;;;;;4.80;3.20;;;18.90;99.90;;;;;;5051879;28;20400;-69
2022/07/09 00:22:47;;;;;;;5.53;3.07;;;18.80;99.90;;;;;;5053296;28;20316;-70
2022/07/09 00:25:14;;;;;;;9.63;3.43;;;18.90;99.90;;;;;;5053315;28;20299;-69
2022/07/09 00:27:41;;;;;;;4.67;3.17;;;18.90;99.90;;;;;;5053330;28;20295;-70
2022/07/09 00:30:09;;;;;;;3.47;3.17;;;18.90;99.90;;;;;;5044579;28;20313;-70
2022/07/09 00:32:35;;;;;;;5.93;3.20;;;18.90;99.90;;;;;;5032547;28;20234;-70
2022/07/09 00:35:04;;;;;;;5.03;3.33;;;18.90;99.90;;;;;;5032593;28;20681;-70
2022/07/09 00:37:31;;;;;;;4.80;3.20;;;19.00;99.90;;;;;;5033289;28;20297;-70
2022/07/09 00:39:58;;;;;;;5.00;3.30;;;18.90;99.90;;;;;;5031617;28;20253;-69
2022/07/09 00:42:25;;;;;;;5.40;3.37;;;18.90;99.90;;;;;;5031957;28;20313;-69
2022/07/09 00:44:52;;;;;;;4.77;3.20;;;18.90;99.90;;;;;;5032955;28;20206;-70
2022/07/09 00:47:19;;;;;;;4.23;3.40;;;18.90;99.90;;;;;;5032659;28;20611;-69
2022/07/09 00:49:46;;;;;;;3.53;3.00;;;18.90;99.90;;;;;;5032819;28;20279;-69
2022/07/09 00:52:17;;;;;;;3.90;3.27;;;18.80;99.90;;;;;;5037773;28;20247;-70
2022/07/09 00:54:45;;;;;;;4.83;3.70;;;18.80;99.90;;;;;;5052124;28;20220;-71
2022/07/09 00:57:13;;;;;;;5.23;3.13;;;18.80;99.90;;;;;;5034842;28;20206;-71
2022/07/09 00:59:41;;;;;;;4.67;3.63;;;18.80;99.90;;;;;;5032593;28;20217;-69
2022/07/09 01:02:09;;;;;;;4.77;3.50;;;18.70;99.90;;;;;;5031838;28;20290;-70
2022/07/09 01:04:37;;;;;;;5.10;3.50;;;18.70;99.90;;;;;;5032517;28;20206;-70
2022/07/09 01:07:04;;;;;;;4.37;3.10;;;18.70;99.90;;;;;;5044996;28;20767;-69
2022/07/09 01:09:34;;;;;;;4.30;3.20;;;18.70;99.90;;;;;;5052717;28;20236;-69
2022/07/09 01:12:01;;;;;;;5.80;3.20;;;18.70;99.90;;;;;;5049336;28;20206;-69
2022/07/09 01:14:28;;;;;;;4.43;3.00;;;18.70;99.90;;;;;;5052358;28;20205;-70
2022/07/09 01:17:00;;;;;;;4.20;3.00;;;18.60;99.90;;;;;;5052125;28;20221;-69
2022/07/09 01:19:27;;;;;;;3.50;2.93;;;18.60;99.90;;;;;;5052345;28;20309;-70
2022/07/09 01:21:56;;;;;;;6.10;3.57;;;18.60;99.90;;;;;;5051593;28;20224;-69
2022/07/09 01:24:24;;;;;;;5.10;3.43;;;18.60;99.90;;;;;;5034664;28;20616;-69
2022/07/09 01:26:53;;;;;;;5.57;3.23;;;18.60;99.90;;;;;;5031961;28;20707;-70
2022/07/09 01:29:20;;;;;;;5.30;3.73;;;18.50;99.90;;;;;;5032712;28;20233;-70
2022/07/09 01:31:47;;;;;;;4.43;3.20;;;18.50;99.90;;;;;;5032181;28;20289;-69
2022/07/09 01:34:14;;;;;;;4.43;3.20;;;18.50;99.90;;;;;;5040040;28;20327;-69
2022/07/09 01:36:41;;;;;;;3.63;3.00;;;18.40;99.90;;;;;;5051839;28;20295;-69
2022/07/09 01:39:09;;;;;;;4.57;3.00;;;18.50;99.90;;;;;;5052422;28;20841;-70
2022/07/09 01:41:36;;;;;;;4.53;3.10;;;18.40;99.90;;;;;;5052214;28;20257;-69
2022/07/09 01:44:03;;;;;;;3.57;3.00;;;18.40;99.90;;;;;;5042022;28;20212;-69
2022/07/09 01:46:30;;;;;;;4.20;3.00;;;18.40;99.90;;;;;;5031791;28;20268;-71
2022/07/09 01:48:57;;;;;;;6.20;3.33;;;18.40;99.90;;;;;;5031634;28;20260;-70
2022/07/09 01:51:24;;;;;;;5.27;3.13;;;18.40;99.90;;;;;;5032342;28;20209;-69
2022/07/09 01:53:51;;;;;;;2.93;2.70;;;18.40;99.90;;;;;;5032940;28;20281;-70
2022/07/09 01:56:19;;;;;;;4.60;3.07;;;18.40;99.90;;;;;;5031803;28;20256;-69
2022/07/09 01:58:46;;;;;;;4.10;3.10;;;18.40;99.90;;;;;;5031656;28;20300;-70
2022/07/09 02:01:13;;;;;;;3.40;2.63;;;18.30;99.90;;;;;;5031969;28;20297;-69
2022/07/09 02:03:40;;;;;;;4.03;3.10;;;18.30;99.90;;;;;;5030866;28;20775;-69
2022/07/09 02:06:07;;;;;;;4.53;3.03;;;18.30;99.90;;;;;;5033811;28;20207;-70
2022/07/09 02:08:34;;;;;;;6.20;3.30;;;18.20;99.90;;;;;;5051512;28;20300;-69
2022/07/09 02:11:00;;;;;;;4.53;2.80;;;18.20;99.90;;;;;;5051957;28;20244;-69
2022/07/09 02:13:29;;;;;;;3.93;2.70;;;18.20;99.90;;;;;;5049991;28;20284;-70
2022/07/09 02:15:56;;;;;;;3.37;3.00;;;18.20;99.90;;;;;;5053590;28;20297;-70
2022/07/09 02:18:22;;;;;;;5.33;3.00;;;18.30;99.90;;;;;;5055990;28;20759;-69
2022/07/09 02:20:49;;;;;;;10.23;3.17;;;18.30;99.90;;;;;;5037504;28;20296;-69
2022/07/09 02:23:16;;;;;;;3.70;2.73;;;18.30;99.90;;;;;;5035370;28;20226;-69
2022/07/09 02:25:43;;;;;;;4.97;2.70;;;18.40;99.90;;;;;;5035264;28;20244;-70
2022/07/09 02:28:10;;;;;;;3.80;2.80;;;18.40;99.90;;;;;;5035125;28;20214;-69
2022/07/09 02:30:38;;;;;;;3.10;2.50;;;18.40;99.90;;;;;;5037848;28;20681;-71
2022/07/09 02:33:06;;;;;;;3.60;2.70;;;18.50;99.90;;;;;;5035606;28;20685;-70
2022/07/09 02:35:33;;;;;;;2.90;2.50;;;18.50;99.90;;;;;;5035302;28;20694;-69
2022/07/09 02:37:59;;;;;;;4.13;2.73;;;18.60;99.90;;;;;;5035362;28;20294;-69
2022/07/09 02:40:26;;;;;;;3.50;2.50;;;18.70;99.90;;;;;;5039739;28;20293;-69
2022/07/09 02:42:53;;;;;;;6.67;2.70;;;18.70;99.90;;;;;;5055508;28;20641;-70
2022/07/09 02:45:20;;;;;;;5.03;3.13;;;18.70;99.90;;;;;;5055302;28;20717;-70
2022/07/09 02:47:48;;;;;;;3.17;2.70;;;18.80;99.90;;;;;;5055198;28;20208;-71
2022/07/09 02:50:15;;;;;;;3.63;2.60;;;18.80;99.90;;;;;;5049911;28;20202;-68
2022/07/09 02:52:42;;;;;;;3.03;2.73;;;18.80;99.90;;;;;;5034810;28;20240;-70
2022/07/09 02:55:09;;;;;;;3.43;2.77;;;18.80;99.90;;;;;;5034555;28;20225;-69
2022/07/09 02:57:37;;;;;;;2.90;2.60;;;18.90;99.90;;;;;;5034820;28;20312;-69
2022/07/09 03:00:05;;;;;;;3.77;2.83;;;19.00;99.90;;;;;;5034844;28;20293;-69
2022/07/09 03:02:32;;;;;;;4.83;3.00;;;19.00;99.90;;;;;;5035433;28;20314;-73
2022/07/09 03:05:01;;;;;;;3.23;2.93;;;19.00;99.90;;;;;;5036123;28;20235;-70
2022/07/09 03:07:27;;;;;;;4.30;3.10;;;19.10;99.90;;;;;;5036271;28;20639;-69
2022/07/09 03:09:54;;;;;;;3.10;2.80;;;19.10;99.90;;;;;;5036097;28;20759;-71
2022/07/09 03:12:21;;;;;;;3.37;3.07;;;19.10;99.90;;;;;;5036190;28;20665;-69
2022/07/09 03:14:48;;;;;;;5.53;3.00;;;19.20;99.90;;;;;;5035735;28;20576;-72
2022/07/09 03:17:15;;;;;;;3.90;2.90;;;19.20;99.90;;;;;;5036378;28;20236;-73
2022/07/09 03:19:42;;;;;;;3.60;2.83;;;19.20;99.90;;;;;;5035610;28;20238;-69
2022/07/09 03:22:11;;;;;;;3.43;2.93;;;19.20;99.90;;;;;;5036337;28;20230;-70
2022/07/09 03:24:39;;;;;;;4.13;2.93;;;19.20;99.90;;;;;;5034540;28;20256;-70
2022/07/09 03:27:06;;;;;;;4.27;2.80;;;19.30;99.90;;;;;;5044349;28;20213;-70
2022/07/09 03:29:33;;;;;;;3.40;3.10;;;19.30;99.90;;;;;;5056023;28;20271;-71
2022/07/09 03:32:00;;;;;;;4.20;3.00;;;19.30;99.90;;;;;;5055447;28;20309;-70
2022/07/09 03:34:27;;;;;;;4.73;2.87;;;19.30;99.90;;;;;;5054102;28;20609;-69
2022/07/09 03:36:54;;;;;;;4.00;3.27;;;19.40;99.90;;;;;;5046173;28;20288;-71
2022/07/09 03:39:22;;;;;;;4.10;2.90;;;19.40;99.90;;;;;;5034429;28;20246;-70
2022/07/09 03:41:49;;;;;;;4.47;3.30;;;19.40;99.90;;;;;;5034530;28;20748;-69
2022/07/09 03:44:16;;;;;;;3.43;2.90;;;19.50;99.90;;;;;;5034610;28;20245;-70
2022/07/09 03:46:43;;;;;;;3.10;2.80;;;19.50;99.90;;;;;;5038430;28;20252;-70
2022/07/09 03:49:10;;;;;;;5.33;3.13;;;19.50;99.90;;;;;;5054315;28;20207;-69
2022/07/09 03:51:37;;;;;;;3.40;2.90;;;19.50;99.90;;;;;;5054090;28;20206;-70
2022/07/09 03:54:04;;;;;;;4.97;3.20;;;19.50;99.90;;;;;;5054384;28;20299;-71
2022/07/09 03:56:32;;;;;;;4.20;3.00;;;19.50;99.90;;;;;;5051863;28;20297;-69
2022/07/09 03:58:59;;;;;;;3.47;3.10;;;19.50;99.90;;;;;;5054076;28;20295;-70
2022/07/09 04:01:26;;;;;;;3.70;3.27;;;19.40;99.90;;;;;;5054179;28;20202;-70
2022/07/09 04:03:53;;;;;;;4.60;3.70;;;19.50;99.90;;;;;;5053917;28;20320;-69
2022/07/09 04:06:21;;;;;;;4.50;3.20;;;19.40;99.90;;;;;;5052889;28;20292;-68
2022/07/09 04:08:47;;;;;;;3.50;3.20;;;19.40;99.90;;;;;;5052916;28;20222;-70
2022/07/09 04:11:14;;;;;;;5.70;3.50;;;19.40;99.90;;;;;;5051077;28;20314;-70
2022/07/09 04:13:43;;;;;;;4.30;3.20;;;19.50;99.90;;;;;;5033858;28;20293;-69
2022/07/09 04:16:09;;;;;;;5.60;3.10;;;19.50;99.90;;;;;;5033389;28;20297;-71
2022/07/09 04:18:36;;;;;;;8.93;3.67;;;19.50;99.90;;;;;;5033675;28;20294;-69
2022/07/09 04:21:04;;;;;;;6.17;4.20;;;19.50;99.90;;;;;;5033708;28;20643;-69
2022/07/09 04:23:31;;;;;;;5.97;4.20;;;19.40;99.90;;;;;;5033338;28;20590;-69
2022/07/09 04:25:57;;;;;;;8.70;3.70;;;19.40;99.90;;;;;;5033807;28;20728;-69
2022/07/09 04:28:24;;;;;;;6.73;4.23;;;19.40;99.90;;;;;;5033061;28;20300;-69
2022/07/09 04:30:53;;;;;;;4.47;3.63;;;19.30;99.90;;;;;;5033198;28;20249;-68
2022/07/09 04:33:19;;;;;;;5.60;3.97;;;19.30;99.90;;;;;;5049934;28;20288;-69
2022/07/09 04:35:46;;;;;;;8.80;4.53;;;19.20;99.90;;;;;;5053485;28;20277;-71
2022/07/09 04:38:13;;;;;;;6.10;4.70;;;19.20;99.90;;;;;;5052982;28;20300;-68
2022/07/09 04:40:41;;;;;;;7.87;4.20;;;19.10;99.90;;;;;;5053067;28;20204;-70
2022/07/09 04:43:08;;;;;;;6.87;5.00;;;19.00;99.90;;;;;;5050968;28;20236;-70
2022/07/09 04:45:34;;;;;;;8.57;5.50;;;19.10;99.90;;;;;;5053346;28;20793;-73
2022/07/09 04:48:03;;;;;;;7.27;4.83;;;19.10;99.90;;;;;;5053446;28;20296;-73
2022/07/09 04:50:30;;;;;;;6.20;4.50;;;19.00;99.90;;;;;;5053271;28;20241;-73
2022/07/09 04:52:57;;;;;;;6.67;4.40;;;19.00;99.90;;;;;;5051818;28;20206;-70
2022/07/09 04:55:24;;;;;;;5.67;4.17;;;19.00;99.90;;;;;;5052469;28;20301;-69
2022/07/09 04:57:51;;;;;;;5.40;4.43;;;18.90;99.90;;;;;;5052787;28;20789;-70
2022/07/09 05:00:18;;;;;;;5.83;4.13;;;18.80;99.90;;;;;;5046271;28;20215;-73
2022/07/09 05:02:45;;;;;;;5.27;4.20;;;18.80;99.90;;;;;;5051913;28;20657;-69
2022/07/09 05:05:14;;;;;;;6.57;4.57;;;18.90;99.90;;;;;;5052644;28;20292;-69
2022/07/09 05:07:41;;;;;;;5.63;4.00;;;18.80;99.90;;;;;;5052972;28;20212;-70
2022/07/09 05:10:09;;;;;;;7.13;4.23;;;18.90;99.90;;;;;;5051261;28;20590;-69
2022/07/09 05:12:36;;;;;;;4.90;4.00;;;18.90;99.90;;;;;;5052646;28;20225;-71
2022/07/09 05:15:03;;;;;;;6.83;4.03;;;18.90;99.90;;;;;;5052727;28;20209;-69
2022/07/09 05:17:35;;;;;;;5.73;4.40;;;18.90;99.90;;;;;;5052462;28;20664;-71
2022/07/09 05:20:03;;;;;;;5.90;4.57;;;18.90;99.90;;;;;;5037375;28;20737;-70
2022/07/09 05:22:32;;;;;;;5.80;4.53;;;18.90;99.90;;;;;;5032163;28;20221;-69
2022/07/09 05:24:59;;;;;;;8.23;4.23;;;18.90;99.90;;;;;;5032154;28;20211;-72
2022/07/09 05:27:26;;;;;;;5.07;4.03;;;18.90;99.90;;;;;;5032598;28;20292;-70
2022/07/09 05:29:53;;;;;;;7.20;4.33;;;18.90;99.90;;;;;;5044758;28;20657;-71
2022/07/09 05:32:20;;;;;;;6.10;3.97;;;18.90;99.90;;;;;;5052372;28;20293;-70
2022/07/09 05:34:47;;;;;;;7.97;5.10;;;18.90;99.90;;;;;;5052124;28;20332;-70
2022/07/09 05:37:14;;;;;;;6.17;3.80;;;18.90;99.90;;;;;;5052009;28;20206;-70
2022/07/09 05:39:43;;;;;;;6.20;4.03;;;18.90;99.90;;;;;;5051002;28;20301;-70
2022/07/09 05:42:10;;;;;;;5.93;3.73;;;19.00;99.90;;;;;;5070992;28;20541;-71
2022/07/09 05:44:37;;;;;;;5.07;4.17;;;19.00;99.90;;;;;;5072472;28;20205;-70
2022/07/09 05:47:05;;;;;;;5.17;3.77;;;18.90;99.90;;;;;;5072332;28;20731;-73
2022/07/09 05:49:32;;;;;;;6.80;3.87;;;18.90;99.90;;;;;;5054358;28;20295;-73
2022/07/09 05:51:58;;;;;;;5.30;3.97;;;18.90;99.90;;;;;;5032673;28;20293;-69
2022/07/09 05:54:25;;;;;;;6.97;3.90;;;18.90;99.90;;;;;;5038830;28;20300;-70
2022/07/09 05:56:54;;;;;;;5.50;3.80;;;18.90;99.90;;;;;;5043811;28;20210;-70
2022/07/09 05:59:20;;;;;;;8.83;3.77;;;18.90;99.90;;;;;;5040313;28;20724;-70
2022/07/09 06:01:47;;;;;;;4.57;3.70;;;19.00;99.90;;;;;;5039373;28;20250;-71
2022/07/09 06:04:14;;;;;;;4.40;4.00;;;19.00;99.90;;;;;;5047284;28;20324;-71
2022/07/09 06:06:41;;;;;;;4.43;3.53;;;19.00;99.90;;;;;;5066530;28;20270;-70
2022/07/09 06:09:08;;;;;;;5.57;3.70;;;19.00;99.90;;;;;;5060433;28;20307;-71
2022/07/09 06:11:35;;;;;;;4.83;3.30;;;19.00;99.90;;;;;;5054796;28;20231;-71
2022/07/09 06:14:04;;;;;;;8.10;3.60;;;19.00;99.90;;;;;;5056426;28;20641;-69
2022/07/09 06:16:31;;;;;;;5.60;3.73;;;19.00;99.90;;;;;;5060403;28;20726;-71
2022/07/09 06:18:57;;;;;;;4.93;3.50;;;19.00;99.90;;;;;;5061018;28;20234;-69
2022/07/09 06:21:24;;;;;;;10.47;3.93;;;19.00;99.90;;;;;;5060613;28;20206;-70
2022/07/09 06:23:51;;;;;;;5.83;3.80;;;19.00;99.90;;;;;;5056775;28;20224;-71
2022/07/09 06:26:18;;;;;;;4.00;3.50;;;19.00;99.90;;;;;;5061605;28;20259;-71
2022/07/09 06:28:46;;;;;;;5.10;3.30;;;19.00;99.90;;;;;;5061144;28;20254;-70
2022/07/09 06:31:14;;;;;;;4.17;3.60;;;19.00;99.90;;;;;;5071478;28;20250;-70
2022/07/09 06:33:41;;;;;;;5.77;3.63;;;19.00;99.90;;;;;;5071432;28;20299;-69
2022/07/09 06:36:08;;;;;;;5.17;3.43;;;19.00;99.90;;;;;;5035287;28;20258;-71
2022/07/09 06:39:44;;;;;;;6.87;3.73;;;19.00;99.90;;;;;;5031556;28;20838;-68
2022/07/09 06:41:23;;;;;;;4.33;3.50;;;19.00;99.90;;;;;;5039702;28;20206;-69
2022/07/09 06:43:49;;;;;;;3.87;3.37;;;19.00;99.90;;;;;;5043522;28;20226;-67
2022/07/09 06:46:18;;;;;;;4.17;3.60;;;19.00;99.90;;;;;;5060042;28;20221;-68
2022/07/09 06:48:45;;;;;;;5.33;3.77;;;19.10;99.90;;;;;;5053277;28;20288;-66
2022/07/09 06:51:12;;;;;;;5.83;3.97;;;19.10;99.90;;;;;;5061315;28;20217;-66
2022/07/09 06:53:39;;;;;;;5.27;3.80;;;19.10;99.90;;;;;;5050225;28;20252;-66
2022/07/09 06:56:07;;;;;;;5.20;3.47;;;19.10;99.90;;;;;;5035793;28;20233;-65
2022/07/09 06:58:34;;;;;;;4.00;3.53;;;19.20;99.90;;;;;;5050569;28;20303;-67
2022/07/09 07:01:01;;;;;;;5.37;3.33;;;19.20;99.90;;;;;;5050391;28;20289;-68
2022/07/09 07:03:29;;;;;;;4.23;3.00;;;19.30;99.90;;;;;;5034368;28;20322;-68
2022/07/09 07:05:56;;;;;;;6.20;3.83;;;19.40;99.90;;;;;;5046185;28;20295;-68
2022/07/09 07:08:23;;;;;;;5.50;3.30;;;19.50;99.90;;;;;;5034429;28;20250;-67
2022/07/09 07:10:50;;;;;;;5.80;3.57;;;19.60;99.90;;;;;;5037269;28;20252;-67
2022/07/09 07:13:17;;;;;;;6.57;4.00;;;19.60;99.90;;;;;;5053926;28;20297;-67
2022/07/09 07:15:48;;;;;;;4.30;3.23;;;19.60;99.90;;;;;;5054201;28;20193;-68
2022/07/09 07:18:15;;;;;;;7.20;3.63;;;19.70;99.90;;;;;;5037951;28;20262;-71
2022/07/09 07:20:44;;;;;;;6.93;3.57;;;19.70;99.90;;;;;;5034884;28;20298;-75
2022/07/09 07:23:11;;;;;;;5.03;3.73;;;19.70;99.90;;;;;;5034536;28;20759;-73
2022/07/09 07:25:38;;;;;;;5.77;3.70;;;19.70;99.90;;;;;;5042996;28;20238;-73
2022/07/09 07:28:05;;;;;;;5.20;3.90;;;19.80;99.90;;;;;;5052282;28;20263;-71
2022/07/09 07:30:33;;;;;;;4.27;3.70;;;19.80;99.90;;;;;;5037210;28;20225;-73
2022/07/09 07:33:00;;;;;;;4.73;3.70;;;19.90;99.90;;;;;;5040621;28;20208;-73
2022/07/09 07:35:27;;;;;;;4.47;3.63;;;19.90;99.90;;;;;;5047053;28;20211;-72
2022/07/09 07:37:56;;;;;;;4.40;3.60;;;19.90;99.90;;;;;;5038833;28;20309;-74
2022/07/09 07:40:24;;;;;;;3.80;3.40;;;19.90;99.90;;;;;;5055061;28;20203;-72
2022/07/09 07:42:51;;;;;;;6.33;3.77;;;20.00;99.90;;;;;;5037108;28;20228;-72
2022/07/09 07:45:18;;;;;;;8.70;4.37;;;20.00;99.90;;;;;;5036957;28;20285;-73
2022/07/09 07:47:44;;;;;;;7.67;6.00;;;20.10;99.90;;;;;;5034071;28;20275;-73
2022/07/09 07:50:11;;;;;;;4.27;3.87;;;20.10;99.90;;;;;;5038021;28;20706;-73
2022/07/09 07:52:38;;;;;;;5.67;3.70;;;20.10;99.90;;;;;;5048858;28;20230;-72
2022/07/09 07:55:08;;;;;;;5.13;3.93;;;20.10;99.90;;;;;;5041119;28;20204;-71
2022/07/09 07:57:35;;;;;;;3.97;3.47;;;20.10;99.90;;;;;;5066161;28;20762;-70
2022/07/09 08:00:02;;;;;;;4.50;3.50;;;20.10;99.90;;;;;;5040408;28;20205;-69
2022/07/09 08:02:29;;;;;;;7.60;3.60;;;20.10;99.90;;;;;;5052303;28;20216;-69
2022/07/09 08:04:56;;;;;;;7.70;3.87;;;20.10;99.90;;;;;;5054118;28;20762;-70
2022/07/09 08:07:22;;;;;;;4.17;3.40;;;20.00;99.90;;;;;;5053748;28;20269;-70
2022/07/09 08:09:49;;;;;;;3.50;3.00;;;20.00;99.90;;;;;;5053854;28;20301;-69
2022/07/09 08:12:18;;;;;;;7.27;3.27;;;20.00;99.90;;;;;;5053615;28;20529;-69
2022/07/09 08:14:45;;;;;;;3.87;3.00;;;19.90;99.90;;;;;;5054127;28;20669;-70
2022/07/09 08:17:12;;;;;;;3.87;3.00;;;20.00;99.90;;;;;;5054049;28;20293;-69
2022/07/09 08:19:39;;;;;;;3.90;3.20;;;19.90;99.90;;;;;;5053927;28;20734;-70
2022/07/09 08:22:06;;;;;;;8.20;5.13;;;19.90;99.90;;;;;;5053196;28;20249;-70
2022/07/09 08:24:33;;;;;;;5.30;3.17;;;20.00;99.90;;;;;;5053080;28;20225;-70
2022/07/09 08:27:00;;;;;;;3.33;2.93;;;19.90;99.90;;;;;;5053441;28;20213;-70
2022/07/09 08:29:28;;;;;;;4.03;3.00;;;19.90;99.90;;;;;;5053717;28;20201;-70
2022/07/09 08:31:55;;;;;;;4.17;3.13;;;19.70;99.90;;;;;;5053220;28;20637;-71
2022/07/09 08:34:22;;;;;;;4.90;3.40;;;19.70;99.90;;;;;;5053067;28;20285;-70
2022/07/09 08:36:49;;;;;;;5.30;2.93;;;19.70;99.90;;;;;;5053326;28;20542;-71
2022/07/09 08:39:15;;;;;;;3.60;2.87;;;19.70;99.90;;;;;;5053468;28;20690;-70
2022/07/09 08:41:43;;;;;;;3.63;3.20;;;19.70;99.90;;;;;;5052870;28;20294;-70
2022/07/09 08:44:12;;;;;;;4.20;3.00;;;19.70;99.90;;;;;;5052964;28;20312;-70
2022/07/09 08:46:41;;;;;;;3.53;2.60;;;19.70;99.90;;;;;;5052791;28;20216;-70
2022/07/09 08:49:08;;;;;;;4.30;3.07;;;19.70;99.90;;;;;;5053034;28;20233;-70
2022/07/09 08:51:36;;;;;;;3.77;3.13;;;19.70;99.90;;;;;;5053088;28;20205;-71
2022/07/09 08:54:03;;;;;;;4.60;2.70;;;19.80;99.90;;;;;;5052989;28;20213;-70
2022/07/09 08:56:30;;;;;;;3.20;2.80;;;19.80;99.90;;;;;;5052989;28;20568;-71
2022/07/09 08:58:57;;;;;;;3.70;3.10;;;19.80;99.90;;;;;;5052869;28;20686;-69
2022/07/09 09:01:27;;;;;;;8.00;3.20;;;19.90;99.90;;;;;;5052913;28;20624;-70
2022/07/09 09:03:56;;;;;;;4.27;2.70;;;20.00;99.90;;;;;;5052811;28;20221;-69
2022/07/09 09:06:24;;;;;;;3.53;3.23;;;20.00;99.90;;;;;;5052648;28;20225;-71
2022/07/09 09:08:55;;;;;;;5.20;3.10;;;20.10;99.90;;;;;;5052374;28;20210;-70
2022/07/09 09:11:24;;;;;;;5.80;3.57;;;20.20;99.90;;;;;;5052928;28;20192;-70
2022/07/09 09:13:52;;;;;;;3.50;2.70;;;20.20;99.90;;;;;;5052688;28;20564;-70
2022/07/09 09:16:21;;;;;;;4.97;2.90;;;20.30;99.90;;;;;;5052133;28;20205;-70
2022/07/09 09:18:50;;;;;;;6.67;2.97;;;20.40;99.90;;;;;;5052301;28;20212;-71
2022/07/09 09:21:25;;;;;;;4.03;3.40;;;20.50;99.90;;;;;;5052712;28;20502;-70
2022/07/09 09:23:54;;;;;;;5.47;3.63;;;20.60;99.90;;;;;;5051815;28;20209;-71
2022/07/09 09:26:22;;;;;;;3.60;2.93;;;20.70;99.90;;;;;;5052242;28;20209;-71
2022/07/09 09:28:51;;;;;;;3.13;2.80;;;20.70;99.90;;;;;;5052083;28;20244;-70
2022/07/09 09:31:26;;;;;;;4.20;2.80;;;20.70;99.90;;;;;;5052557;28;20600;-71
2022/07/09 09:33:54;;;;;;;5.10;3.20;;;20.70;99.90;;;;;;5051975;28;20228;-70
2022/07/09 09:36:33;;;;;;;4.30;3.27;;;20.70;99.90;;;;;;5052206;28;20202;-70
2022/07/09 09:39:16;;;;;;;5.53;2.90;;;20.80;99.90;;;;;;5052446;28;20538;-69
2022/07/09 09:41:44;;;;;;;7.90;4.70;;;20.70;99.90;;;;;;5051862;28;20190;-70
2022/07/09 09:44:13;;;;;;;4.47;3.00;;;20.60;99.90;;;;;;5051778;28;20234;-70
2022/07/09 09:46:42;;;;;;;5.17;2.70;;;20.70;99.90;;;;;;5052073;28;20215;-70
2022/07/09 09:49:12;;;;;;;4.83;3.10;;;20.70;99.90;;;;;;5052042;28;20205;-71
2022/07/09 09:51:48;;;;;;;4.50;3.10;;;20.70;99.90;;;;;;5051786;28;20321;-70
2022/07/09 09:54:16;;;;;;;3.37;2.87;;;20.70;99.90;;;;;;5052248;28;20651;-72
2022/07/09 09:56:44;;;;;;;4.37;2.80;;;20.70;99.90;;;;;;5052093;28;20570;-70
2022/07/09 09:59:12;;;;;;;6.80;2.90;;;20.70;99.90;;;;;;5052449;28;20339;-71
2022/07/09 10:01:40;;;;;;;5.00;3.10;;;20.70;99.90;;;;;;5052036;28;20208;-70
2022/07/09 10:04:07;;;;;;;4.53;2.90;;;20.70;99.90;;;;;;5051513;28;20221;-71
2022/07/09 10:06:35;;;;;;;6.80;3.20;;;20.80;99.90;;;;;;5051587;28;20248;-72
2022/07/09 10:09:05;;;;;;;5.40;3.50;;;20.80;99.90;;;;;;5052298;28;20538;-71
2022/07/09 10:11:42;;;;;;;3.87;3.00;;;20.90;99.90;;;;;;5051955;28;20644;-73
2022/07/09 10:14:16;;;;;;;4.93;3.10;;;20.90;99.90;;;;;;5051651;28;20208;-70
2022/07/09 10:16:44;;;;;;;4.83;2.90;;;20.90;99.90;;;;;;5051760;28;20221;-71
2022/07/09 10:19:11;;;;;;;4.63;2.90;;;20.90;99.90;;;;;;5051624;28;20216;-71
2022/07/09 10:21:40;;;;;;;3.33;2.77;;;21.00;99.90;;;;;;5051113;28;20201;-70
2022/07/09 10:24:10;;;;;;;3.50;2.80;;;21.00;99.90;;;;;;5051444;28;20239;-71
2022/07/09 10:26:44;;;;;;;6.23;3.73;;;21.00;99.90;;;;;;5051194;28;20253;-70
2022/07/09 10:29:22;;;;;;;5.20;3.53;;;21.00;99.90;;;;;;5051652;28;20191;-70
2022/07/09 10:31:49;;;;;;;5.83;2.80;;;21.10;99.90;;;;;;5052208;28;20663;-70
2022/07/09 10:34:37;;;;;;;4.30;2.90;;;21.20;99.90;;;;;;5052306;28;20225;-70
2022/07/09 10:37:06;;;;;;;5.63;2.97;;;21.20;99.90;;;;;;5055447;28;20280;-70
2022/07/09 10:39:34;;;;;;;4.17;3.30;;;21.20;99.90;;;;;;5055379;28;20301;-70
2022/07/09 10:42:02;;;;;;;4.93;3.20;;;21.10;99.90;;;;;;5055695;28;20214;-70
2022/07/09 10:44:34;;;;;;;4.90;2.90;;;21.10;99.90;;;;;;5055368;28;20229;-69
2022/07/09 10:47:01;;;;;;;3.73;2.87;;;21.10;99.90;;;;;;5055572;28;20193;-71
2022/07/09 10:49:29;;;;;;;3.10;2.77;;;21.10;99.90;;;;;;5055279;28;20245;-69
2022/07/09 10:51:59;;;;;;;4.27;3.50;;;21.10;99.90;;;;;;5055267;28;20296;-70
2022/07/09 10:54:26;;;;;;;5.07;3.03;;;21.10;99.90;;;;;;5055582;28;20210;-71
2022/07/09 10:56:55;;;;;;;3.93;3.17;;;21.10;99.90;;;;;;5055590;28;20312;-69
2022/07/09 10:59:22;;;;;;;5.43;3.33;;;21.10;99.90;;;;;;5055227;28;20303;-71
2022/07/09 11:01:50;;;;;;;3.23;2.93;;;21.00;99.90;;;;;;5055152;28;20209;-70
2022/07/09 11:04:28;;;;;;;3.90;3.20;;;20.90;99.90;;;;;;5055422;28;20228;-69
2022/07/09 11:06:56;;;;;;;5.07;3.70;;;20.90;99.90;;;;;;5055549;28;20237;-71
2022/07/09 11:09:23;;;;;;;5.73;3.63;;;21.00;99.90;;;;;;5054892;28;20344;-69
2022/07/09 11:11:49;;;;;;;3.63;3.07;;;21.00;99.90;;;;;;5054974;28;20288;-70
2022/07/09 11:14:18;;;;;;;7.30;3.07;;;21.00;99.90;;;;;;5055179;28;20228;-72
2022/07/09 11:16:54;;;;;;;3.30;3.00;;;21.00;99.90;;;;;;5055262;28;20243;-71
2022/07/09 11:19:21;;;;;;;5.20;3.60;;;21.00;99.90;;;;;;5055221;28;20196;-71
2022/07/09 11:21:49;;;;;;;5.10;3.10;;;21.10;99.90;;;;;;5054638;28;20244;-71
2022/07/09 11:24:18;;;;;;;5.63;3.60;;;21.10;99.90;;;;;;5055302;28;20263;-71
2022/07/09 11:26:46;;;;;;;3.67;3.33;;;21.10;99.90;;;;;;5055370;28;20209;-71
2022/07/09 11:29:14;;;;;;;5.60;3.40;;;21.00;99.90;;;;;;5050212;28;20209;-73
2022/07/09 11:31:49;;;;;;;5.63;3.83;;;20.90;99.90;;;;;;5040607;28;20260;-72
2022/07/09 11:34:16;;;;;;;6.53;4.03;;;21.00;99.90;;;;;;5039146;28;20251;-71
2022/07/09 11:36:45;;;;;;;5.87;3.80;;;20.90;99.90;;;;;;5060342;28;20296;-71
2022/07/09 11:39:23;;;;;;;5.37;3.60;;;20.90;99.90;;;;;;5055341;28;20201;-75
2022/07/09 11:41:50;;;;;;;4.73;3.60;;;20.90;99.90;;;;;;5055139;28;20193;-74
2022/07/09 11:44:22;;;;;;;5.30;3.53;;;20.90;99.90;;;;;;5051678;28;20781;-70
2022/07/09 11:47:03;;;;;;;7.53;3.77;;;20.90;99.90;;;;;;5039856;28;20215;-73
2022/07/09 11:49:35;;;;;;;5.93;3.90;;;21.00;99.90;;;;;;5034894;28;20558;-71
2022/07/09 11:52:02;;;;;;;6.33;4.27;;;21.00;99.90;;;;;;5034635;28;20627;-71
2022/07/09 11:54:29;;;;;;;5.27;3.87;;;21.10;99.90;;;;;;5034569;28;20271;-72
2022/07/09 11:56:56;;;;;;;7.27;3.33;;;21.10;99.90;;;;;;5034715;28;20617;-71
2022/07/09 11:59:27;;;;;;;4.37;3.57;;;21.10;99.90;;;;;;5034288;28;20293;-73
2022/07/09 12:01:55;;;;;;;4.47;3.30;;;21.10;99.90;;;;;;5034706;28;20297;-71
2022/07/09 12:04:23;;;;;;;4.90;3.67;;;21.00;99.90;;;;;;5033954;28;20578;-71
2022/07/09 12:06:51;;;;;;;7.53;3.90;;;21.00;99.90;;;;;;5033914;28;20608;-70
2022/07/09 12:09:29;;;;;;;6.33;3.27;;;21.10;99.90;;;;;;5034043;28;20210;-71
2022/07/09 12:11:56;;;;;;;5.17;3.47;;;21.00;99.90;;;;;;5033405;28;20236;-72
2022/07/09 12:14:23;;;;;;;4.57;3.40;;;21.00;99.90;;;;;;5044092;28;20205;-67
2022/07/09 12:16:50;;;;;;;4.77;3.10;;;21.00;99.90;;;;;;5038803;28;20686;-68
2022/07/09 12:19:17;;;;;;;5.77;3.37;;;20.90;99.90;;;;;;5048223;28;20662;-67
2022/07/09 12:21:45;;;;;;;6.40;4.13;;;20.90;99.90;;;;;;5042635;28;20197;-70
2022/07/09 12:24:12;;;;;;;8.20;3.90;;;21.00;99.90;;;;;;5045440;28;20216;-69
2022/07/09 12:26:39;;;;;;;5.10;3.57;;;21.00;99.90;;;;;;5036399;28;20261;-71
2022/07/09 12:29:06;;;;;;;5.30;3.60;;;21.00;99.90;;;;;;5038003;28;20678;-69
2022/07/09 12:31:36;;;;;;;5.53;3.63;;;21.10;99.90;;;;;;5050594;28;20293;-69
2022/07/09 12:34:04;;;;;;;8.50;4.50;;;21.10;99.90;;;;;;5052496;28;20287;-65
2022/07/09 12:36:31;;;;;;;6.00;3.50;;;21.10;99.90;;;;;;5063598;28;20201;-68
2022/07/09 12:38:59;;;;;;;4.50;3.53;;;21.00;99.90;;;;;;5071770;28;20295;-69
2022/07/09 12:41:26;;;;;;;4.87;3.33;;;21.10;99.90;;;;;;5048222;28;20259;-69
2022/07/09 12:43:53;;;;;;;4.03;3.27;;;21.20;99.90;;;;;;5066079;28;20346;-68
2022/07/09 12:46:20;;;;;;;6.13;3.50;;;21.20;99.90;;;;;;5065929;28;20316;-67
2022/07/09 12:48:46;;;;;;;4.30;3.43;;;21.20;99.90;;;;;;5052564;28;20284;-68
2022/07/09 12:51:13;;;;;;;4.70;3.20;;;21.30;99.90;;;;;;5052293;28;20293;-65